Relevés horaires Koksijde (Belgique)


Relevés horaires à Koksijde - Mercredi 01 Mars 2023
Heure UTC1 Température [°C] Vent [km/h] Hum. [%] Pres.4 [hPa] Visi. [Km] Nébu. [octa] Préc.5 [mm] Cond.
2m. Res. Ros. Dir.2 Vit. Moy. Raf.3
23:00 0.7 -1.1 -4.0 NE 5.6 -- 7.4 71 1024.7(0.0/3h) 20 -- -- --
22:00 0.7 -1.1 -3.9 NNE 5.6 -- 7.4 71 1024.7(0.0/3h) 19 -- -- --
21:00 1.2 -0.5 -3.2 NE 5.6 -- 13.0 72 1024.5(0.0/3h) 20 -- -- --
20:00 1.7 0.1 -2.2 NE 5.6 -- 7.4 75 1024.7(0.2/3h) 19 -- -- --
19:00 2.9 1.5 -0.4 NE 5.6 -- 13.0 79 1024.7(0.0/3h) 13 -- -- --
18:00 4.2 1.9 -0.3 NE 9.3 -- 18.5 72 1024.5(-0.9/3h) 16 -- -- --
17:00 4.5 1.8 -0.9 NNE 11.1 -- 18.5 68 1024.5(-1.5/3h) 18 -- -- --
16:00 5.2 2.3 -1.6 NNE 13.0 -- 18.5 61 1024.7(-2.0/3h) 20 -- -- --
15:00 5.9 3.2 -1.8 NNE 13.0 -- 18.5 58 1025.5(-2.2/3h) 20 1/8 -- --
14:00 6.1 3.4 -2.1 N 13.0 -- 18.5 56 1026(-2.2/3h) 20 1/8 -- --
13:00 6.0 3.3 -2.1 NNE 13.0 -- 18.5 56 1026.7(-2.0/3h) 20 1/8 -- --
12:00 5.6 2.8 -3.6 NNE 13.0 -- 16.7 51 1027.7(-1.5/3h) 20 1/8 -- --
11:00 5.6 3.2 -4.3 ENE 11.1 -- 14.8 49 1028.2(-1.1/3h) 20 1/8 -- --
10:00 4.5 2.2 -3.9 ENE 9.3 -- 13.0 54 1028.9(-0.5/3h) 20 1/8 -- --
09:00 3.5 1.5 -2.6 ENE 7.4 -- 0.0 64 1029.2(-0.2/3h) 20 1/8 -- --
08:00 1.0 1.0 -2.7 ENE 3.7 -- 0.0 76 1029.4(-0.3/3h) 20 1/8 -- --
07:00 -0.7 -0.7 -3.0 ENE 3.7 -- 0.0 84 1029.5(-0.5/3h) 20 1/8 -- --
06:00 -0.6 -0.6 -2.8 E 3.7 -- 0.0 85 1029.5(-0.8/3h) 20 1/8 -- --
05:00 -0.3 -0.3 -3.0 NNO 0.0 -- 0.0 82 1029.7(-1.1/3h) 14 -- -- --
04:00 0.0 0.0 -3.1 NNO 0.0 -- 0.0 80 1030(-1.4/3h) 19 -- -- --
03:00 0.3 0.3 -4.4 NNO 0.0 0.0 0.0 71 1030.4(-1.2/3h) 20 -- -- --
02:00 -0.3 -0.3 -5.3 NNO 0.0 -- 0.0 69 1030.9(-0.6/3h) 20 -- -- --
01:00 -0.3 -0.3 -5.0 NNO 0.0 -- 0.0 70 1031.5(0.0/3h) 20 -- -- --
00:00 0.7 0.7 -5.3 NNO 0.0 -- 7.4 64 1031.5(0.3/3h) 20 -- -- --

1 Coordinated Universal Time. Actuellement il est 16:00 locale et 14:00 UTC.

2 Le vent souffle depuis la direction indiquée vers la direction oposée.

3 Les rafales max. sont disponible 40 min après l'heure du relevé.

4 Pour les stations d'altitude (plus de 600m) le géopotentiel du niveau le plus proche de la pression obligatoire est indiqué.

5 Les stations disposant d'un diffuseur peuvent indiquer "trace". Cela signifie que des précipitations ont touchés le sol mais que la quantité est inférieure à 0.1 mm.

Récapitulatif de la journée
Température [°C] Vent [km/h] Ensoleillement4 [h] Precipitations totale5 [mm] Pression [Hpa]
Min1 Max.2 Moy.3 Max. Min Max.
-1.4 6.7 0 18.5 0 h 0 min 0 1024.5 1031.5

1 Température minimale relevée entre 18:00 UTC la veille et 18:00 UTC le jour donné.

2 Température maximale relevée entre 06:00 UTC le jour donné et 06:00 UTC le lendemain.

3 Vent moyen de la journée basé sur les relevés horaires.

4 Ensoleillement en heures relevé entre 06:00 UTC la veille et 06:00 UTC le jour donné.

5 Précipitations totales tombées entre 06:00 UTC la jour donné et 06:00 UTC le lendemain.

Graphiques horaires